sensor_id;sensor_type;location;lat;lon;timestamp;P1;durP1;ratioP1;P2;durP2;ratioP2
53151;SDS011;39234;53.158;6.322;2023-05-07T00:00:29;26.30;;;20.85;;
53151;SDS011;39234;53.158;6.322;2023-05-07T00:02:55;31.02;;;21.95;;
53151;SDS011;39234;53.158;6.322;2023-05-07T00:05:21;28.02;;;21.63;;
53151;SDS011;39234;53.158;6.322;2023-05-07T00:07:46;23.30;;;19.80;;
53151;SDS011;39234;53.158;6.322;2023-05-07T00:10:12;28.05;;;21.42;;
53151;SDS011;39234;53.158;6.322;2023-05-07T00:12:38;29.40;;;21.95;;
53151;SDS011;39234;53.158;6.322;2023-05-07T00:15:05;25.83;;;21.67;;
53151;SDS011;39234;53.158;6.322;2023-05-07T00:17:32;28.30;;;21.40;;
53151;SDS011;39234;53.158;6.322;2023-05-07T00:19:58;26.35;;;21.02;;
53151;SDS011;39234;53.158;6.322;2023-05-07T00:22:24;26.17;;;21.05;;
53151;SDS011;39234;53.158;6.322;2023-05-07T00:24:50;27.35;;;21.52;;
53151;SDS011;39234;53.158;6.322;2023-05-07T00:27:15;28.05;;;19.90;;
53151;SDS011;39234;53.158;6.322;2023-05-07T00:29:41;27.83;;;22.70;;
53151;SDS011;39234;53.158;6.322;2023-05-07T00:32:07;27.95;;;22.92;;
53151;SDS011;39234;53.158;6.322;2023-05-07T00:34:33;28.15;;;21.30;;
53151;SDS011;39234;53.158;6.322;2023-05-07T00:37:00;26.92;;;21.70;;
53151;SDS011;39234;53.158;6.322;2023-05-07T00:39:26;25.63;;;21.67;;
53151;SDS011;39234;53.158;6.322;2023-05-07T00:41:52;29.63;;;23.05;;
53151;SDS011;39234;53.158;6.322;2023-05-07T00:44:17;29.38;;;23.55;;
53151;SDS011;39234;53.158;6.322;2023-05-07T00:46:43;28.10;;;22.73;;
53151;SDS011;39234;53.158;6.322;2023-05-07T00:49:15;28.23;;;23.10;;
53151;SDS011;39234;53.158;6.322;2023-05-07T00:51:41;31.58;;;23.90;;
53151;SDS011;39234;53.158;6.322;2023-05-07T00:54:07;30.52;;;24.73;;
53151;SDS011;39234;53.158;6.322;2023-05-07T00:56:34;30.50;;;24.38;;
53151;SDS011;39234;53.158;6.322;2023-05-07T00:59:01;33.38;;;23.90;;
53151;SDS011;39234;53.158;6.322;2023-05-07T01:01:27;31.67;;;23.25;;
53151;SDS011;39234;53.158;6.322;2023-05-07T01:03:53;30.77;;;23.70;;
53151;SDS011;39234;53.158;6.322;2023-05-07T01:06:20;36.50;;;23.27;;
53151;SDS011;39234;53.158;6.322;2023-05-07T01:08:46;32.50;;;24.33;;
53151;SDS011;39234;53.158;6.322;2023-05-07T01:11:13;31.25;;;24.88;;
53151;SDS011;39234;53.158;6.322;2023-05-07T01:13:39;31.00;;;26.35;;
53151;SDS011;39234;53.158;6.322;2023-05-07T01:16:06;31.33;;;24.23;;
53151;SDS011;39234;53.158;6.322;2023-05-07T01:18:34;30.20;;;23.67;;
53151;SDS011;39234;53.158;6.322;2023-05-07T01:21:00;34.63;;;24.50;;
53151;SDS011;39234;53.158;6.322;2023-05-07T01:23:29;31.38;;;25.42;;
53151;SDS011;39234;53.158;6.322;2023-05-07T01:25:55;35.63;;;25.15;;
53151;SDS011;39234;53.158;6.322;2023-05-07T01:28:21;35.63;;;25.52;;
53151;SDS011;39234;53.158;6.322;2023-05-07T01:31:00;33.10;;;25.33;;
53151;SDS011;39234;53.158;6.322;2023-05-07T01:33:29;34.47;;;27.25;;
53151;SDS011;39234;53.158;6.322;2023-05-07T01:35:58;32.80;;;25.75;;
53151;SDS011;39234;53.158;6.322;2023-05-07T01:38:27;36.72;;;26.48;;
53151;SDS011;39234;53.158;6.322;2023-05-07T01:40:53;30.52;;;24.17;;
53151;SDS011;39234;53.158;6.322;2023-05-07T01:43:20;35.42;;;26.13;;
53151;SDS011;39234;53.158;6.322;2023-05-07T01:45:46;35.70;;;26.08;;
53151;SDS011;39234;53.158;6.322;2023-05-07T01:48:14;33.67;;;25.90;;
53151;SDS011;39234;53.158;6.322;2023-05-07T01:50:40;35.60;;;26.13;;
53151;SDS011;39234;53.158;6.322;2023-05-07T01:53:07;34.63;;;26.52;;
53151;SDS011;39234;53.158;6.322;2023-05-07T01:55:33;32.85;;;26.65;;
53151;SDS011;39234;53.158;6.322;2023-05-07T01:57:59;39.75;;;27.10;;
53151;SDS011;39234;53.158;6.322;2023-05-07T02:00:25;34.00;;;25.90;;
53151;SDS011;39234;53.158;6.322;2023-05-07T02:02:51;37.85;;;27.10;;
53151;SDS011;39234;53.158;6.322;2023-05-07T02:05:17;33.08;;;26.63;;
53151;SDS011;39234;53.158;6.322;2023-05-07T02:07:43;33.45;;;27.02;;
53151;SDS011;39234;53.158;6.322;2023-05-07T02:10:09;36.55;;;27.13;;
53151;SDS011;39234;53.158;6.322;2023-05-07T02:12:35;36.08;;;25.95;;
53151;SDS011;39234;53.158;6.322;2023-05-07T02:15:01;32.38;;;26.52;;
53151;SDS011;39234;53.158;6.322;2023-05-07T02:17:26;38.22;;;28.77;;
53151;SDS011;39234;53.158;6.322;2023-05-07T02:19:52;40.10;;;28.48;;
53151;SDS011;39234;53.158;6.322;2023-05-07T02:22:18;36.95;;;27.40;;
53151;SDS011;39234;53.158;6.322;2023-05-07T02:24:44;36.75;;;29.50;;
53151;SDS011;39234;53.158;6.322;2023-05-07T02:27:10;41.63;;;29.95;;
53151;SDS011;39234;53.158;6.322;2023-05-07T02:29:35;37.92;;;28.50;;
53151;SDS011;39234;53.158;6.322;2023-05-07T02:32:01;35.47;;;29.25;;
53151;SDS011;39234;53.158;6.322;2023-05-07T02:34:27;37.55;;;29.70;;
53151;SDS011;39234;53.158;6.322;2023-05-07T02:36:53;39.33;;;29.48;;
53151;SDS011;39234;53.158;6.322;2023-05-07T02:39:18;48.28;;;31.10;;
53151;SDS011;39234;53.158;6.322;2023-05-07T02:41:44;40.90;;;31.20;;
53151;SDS011;39234;53.158;6.322;2023-05-07T02:44:10;41.85;;;30.90;;
53151;SDS011;39234;53.158;6.322;2023-05-07T02:46:36;40.08;;;29.52;;
53151;SDS011;39234;53.158;6.322;2023-05-07T02:49:01;39.30;;;30.38;;
53151;SDS011;39234;53.158;6.322;2023-05-07T02:51:27;39.85;;;31.08;;
53151;SDS011;39234;53.158;6.322;2023-05-07T02:53:53;43.90;;;31.05;;
53151;SDS011;39234;53.158;6.322;2023-05-07T02:56:18;40.75;;;29.13;;
53151;SDS011;39234;53.158;6.322;2023-05-07T02:58:44;41.60;;;31.83;;
53151;SDS011;39234;53.158;6.322;2023-05-07T03:01:10;40.22;;;31.08;;
53151;SDS011;39234;53.158;6.322;2023-05-07T03:03:37;43.33;;;31.63;;
53151;SDS011;39234;53.158;6.322;2023-05-07T03:06:02;45.28;;;30.25;;
53151;SDS011;39234;53.158;6.322;2023-05-07T03:08:28;49.03;;;32.72;;
53151;SDS011;39234;53.158;6.322;2023-05-07T03:10:54;41.95;;;31.90;;
53151;SDS011;39234;53.158;6.322;2023-05-07T03:13:20;42.75;;;32.53;;
53151;SDS011;39234;53.158;6.322;2023-05-07T03:15:46;47.13;;;32.28;;
53151;SDS011;39234;53.158;6.322;2023-05-07T03:18:11;46.80;;;32.80;;
53151;SDS011;39234;53.158;6.322;2023-05-07T03:20:37;46.60;;;34.17;;
53151;SDS011;39234;53.158;6.322;2023-05-07T03:23:03;46.90;;;32.25;;
53151;SDS011;39234;53.158;6.322;2023-05-07T03:25:29;46.67;;;33.20;;
53151;SDS011;39234;53.158;6.322;2023-05-07T03:27:55;48.25;;;34.63;;
53151;SDS011;39234;53.158;6.322;2023-05-07T03:30:21;51.35;;;33.58;;
53151;SDS011;39234;53.158;6.322;2023-05-07T03:32:47;49.42;;;33.45;;
53151;SDS011;39234;53.158;6.322;2023-05-07T03:35:13;51.30;;;34.60;;
53151;SDS011;39234;53.158;6.322;2023-05-07T03:37:39;49.53;;;34.22;;
53151;SDS011;39234;53.158;6.322;2023-05-07T03:40:05;51.45;;;34.75;;
53151;SDS011;39234;53.158;6.322;2023-05-07T03:42:31;51.30;;;34.55;;
53151;SDS011;39234;53.158;6.322;2023-05-07T03:44:57;52.85;;;35.97;;
53151;SDS011;39234;53.158;6.322;2023-05-07T03:47:23;50.50;;;35.08;;
53151;SDS011;39234;53.158;6.322;2023-05-07T03:49:48;57.33;;;35.58;;
53151;SDS011;39234;53.158;6.322;2023-05-07T03:52:15;55.33;;;36.78;;
53151;SDS011;39234;53.158;6.322;2023-05-07T03:54:41;50.85;;;34.13;;
53151;SDS011;39234;53.158;6.322;2023-05-07T03:57:07;49.85;;;35.15;;
53151;SDS011;39234;53.158;6.322;2023-05-07T03:59:32;53.65;;;35.42;;
53151;SDS011;39234;53.158;6.322;2023-05-07T04:01:58;53.28;;;35.60;;
53151;SDS011;39234;53.158;6.322;2023-05-07T04:04:24;52.55;;;35.75;;
53151;SDS011;39234;53.158;6.322;2023-05-07T04:06:49;51.17;;;35.20;;
53151;SDS011;39234;53.158;6.322;2023-05-07T04:09:16;52.40;;;36.55;;
53151;SDS011;39234;53.158;6.322;2023-05-07T04:11:42;50.78;;;35.72;;
53151;SDS011;39234;53.158;6.322;2023-05-07T04:14:07;52.88;;;36.45;;
53151;SDS011;39234;53.158;6.322;2023-05-07T04:16:34;54.85;;;37.10;;
53151;SDS011;39234;53.158;6.322;2023-05-07T04:19:00;50.67;;;35.45;;
53151;SDS011;39234;53.158;6.322;2023-05-07T04:21:26;57.92;;;38.22;;
53151;SDS011;39234;53.158;6.322;2023-05-07T04:23:52;51.33;;;35.85;;
53151;SDS011;39234;53.158;6.322;2023-05-07T04:26:17;55.10;;;36.55;;
53151;SDS011;39234;53.158;6.322;2023-05-07T04:28:43;55.28;;;36.90;;
53151;SDS011;39234;53.158;6.322;2023-05-07T04:31:09;53.78;;;35.40;;
53151;SDS011;39234;53.158;6.322;2023-05-07T04:33:35;52.35;;;36.47;;
53151;SDS011;39234;53.158;6.322;2023-05-07T04:36:01;51.00;;;34.33;;
53151;SDS011;39234;53.158;6.322;2023-05-07T04:38:31;53.22;;;35.47;;
53151;SDS011;39234;53.158;6.322;2023-05-07T04:40:58;50.67;;;34.38;;
53151;SDS011;39234;53.158;6.322;2023-05-07T04:43:28;51.78;;;35.67;;
53151;SDS011;39234;53.158;6.322;2023-05-07T04:45:53;48.50;;;34.22;;
53151;SDS011;39234;53.158;6.322;2023-05-07T04:48:19;50.03;;;34.20;;
53151;SDS011;39234;53.158;6.322;2023-05-07T04:50:51;51.47;;;35.53;;
53151;SDS011;39234;53.158;6.322;2023-05-07T04:53:17;51.15;;;35.78;;
53151;SDS011;39234;53.158;6.322;2023-05-07T04:55:44;55.92;;;35.78;;
53151;SDS011;39234;53.158;6.322;2023-05-07T04:58:10;46.80;;;33.35;;
53151;SDS011;39234;53.158;6.322;2023-05-07T05:00:37;52.28;;;35.03;;
53151;SDS011;39234;53.158;6.322;2023-05-07T05:03:04;53.33;;;35.28;;
53151;SDS011;39234;53.158;6.322;2023-05-07T05:05:31;50.10;;;35.90;;
53151;SDS011;39234;53.158;6.322;2023-05-07T05:07:57;50.20;;;35.00;;
53151;SDS011;39234;53.158;6.322;2023-05-07T05:10:23;51.92;;;35.58;;
53151;SDS011;39234;53.158;6.322;2023-05-07T05:12:50;49.25;;;34.88;;
53151;SDS011;39234;53.158;6.322;2023-05-07T05:15:15;48.28;;;33.65;;
53151;SDS011;39234;53.158;6.322;2023-05-07T05:17:41;44.42;;;33.30;;
53151;SDS011;39234;53.158;6.322;2023-05-07T05:20:07;44.08;;;32.42;;
53151;SDS011;39234;53.158;6.322;2023-05-07T05:22:34;41.40;;;31.23;;
53151;SDS011;39234;53.158;6.322;2023-05-07T05:25:00;42.45;;;31.40;;
53151;SDS011;39234;53.158;6.322;2023-05-07T05:27:26;46.67;;;31.35;;
53151;SDS011;39234;53.158;6.322;2023-05-07T05:29:52;39.33;;;28.48;;
53151;SDS011;39234;53.158;6.322;2023-05-07T05:32:17;46.50;;;31.40;;
53151;SDS011;39234;53.158;6.322;2023-05-07T05:34:43;43.38;;;30.63;;
53151;SDS011;39234;53.158;6.322;2023-05-07T05:37:09;45.10;;;32.10;;
53151;SDS011;39234;53.158;6.322;2023-05-07T05:39:35;42.33;;;30.88;;
53151;SDS011;39234;53.158;6.322;2023-05-07T05:42:01;38.60;;;28.65;;
53151;SDS011;39234;53.158;6.322;2023-05-07T05:44:27;38.33;;;30.95;;
53151;SDS011;39234;53.158;6.322;2023-05-07T05:46:53;42.90;;;29.45;;
53151;SDS011;39234;53.158;6.322;2023-05-07T05:49:22;37.97;;;29.83;;
53151;SDS011;39234;53.158;6.322;2023-05-07T05:51:48;43.00;;;30.98;;
53151;SDS011;39234;53.158;6.322;2023-05-07T05:54:14;39.00;;;30.17;;
53151;SDS011;39234;53.158;6.322;2023-05-07T05:56:40;39.95;;;30.95;;
53151;SDS011;39234;53.158;6.322;2023-05-07T05:59:06;38.90;;;29.70;;
53151;SDS011;39234;53.158;6.322;2023-05-07T06:01:32;38.17;;;29.88;;
53151;SDS011;39234;53.158;6.322;2023-05-07T06:03:58;36.40;;;28.05;;
53151;SDS011;39234;53.158;6.322;2023-05-07T06:06:24;37.58;;;27.90;;
53151;SDS011;39234;53.158;6.322;2023-05-07T06:08:49;37.65;;;27.88;;
53151;SDS011;39234;53.158;6.322;2023-05-07T06:11:15;39.47;;;30.27;;
53151;SDS011;39234;53.158;6.322;2023-05-07T06:13:41;35.33;;;26.77;;
53151;SDS011;39234;53.158;6.322;2023-05-07T06:16:07;33.78;;;28.25;;
53151;SDS011;39234;53.158;6.322;2023-05-07T06:18:32;33.78;;;27.05;;
53151;SDS011;39234;53.158;6.322;2023-05-07T06:21:01;30.58;;;25.88;;
53151;SDS011;39234;53.158;6.322;2023-05-07T06:23:27;33.75;;;26.63;;
53151;SDS011;39234;53.158;6.322;2023-05-07T06:25:52;32.75;;;25.88;;
53151;SDS011;39234;53.158;6.322;2023-05-07T06:28:18;29.83;;;24.17;;
53151;SDS011;39234;53.158;6.322;2023-05-07T06:30:44;29.83;;;22.98;;
53151;SDS011;39234;53.158;6.322;2023-05-07T06:33:10;33.63;;;25.70;;
53151;SDS011;39234;53.158;6.322;2023-05-07T06:35:35;31.40;;;24.73;;
53151;SDS011;39234;53.158;6.322;2023-05-07T06:38:01;28.95;;;24.33;;
53151;SDS011;39234;53.158;6.322;2023-05-07T06:40:27;32.33;;;24.23;;
53151;SDS011;39234;53.158;6.322;2023-05-07T06:42:53;31.50;;;24.15;;
53151;SDS011;39234;53.158;6.322;2023-05-07T06:45:19;29.95;;;24.13;;
53151;SDS011;39234;53.158;6.322;2023-05-07T06:47:45;29.88;;;24.15;;
53151;SDS011;39234;53.158;6.322;2023-05-07T06:50:11;29.65;;;22.65;;
53151;SDS011;39234;53.158;6.322;2023-05-07T06:52:37;27.30;;;21.85;;
53151;SDS011;39234;53.158;6.322;2023-05-07T06:55:03;32.42;;;25.20;;
53151;SDS011;39234;53.158;6.322;2023-05-07T06:57:29;29.40;;;23.50;;
53151;SDS011;39234;53.158;6.322;2023-05-07T06:59:55;28.77;;;23.55;;
53151;SDS011;39234;53.158;6.322;2023-05-07T07:02:21;26.83;;;22.45;;
53151;SDS011;39234;53.158;6.322;2023-05-07T07:04:46;27.73;;;23.58;;
53151;SDS011;39234;53.158;6.322;2023-05-07T07:07:12;29.30;;;23.90;;
53151;SDS011;39234;53.158;6.322;2023-05-07T07:09:38;28.90;;;24.17;;
53151;SDS011;39234;53.158;6.322;2023-05-07T07:12:04;29.15;;;24.35;;
53151;SDS011;39234;53.158;6.322;2023-05-07T07:14:29;30.73;;;23.98;;
53151;SDS011;39234;53.158;6.322;2023-05-07T07:16:55;30.70;;;24.27;;
53151;SDS011;39234;53.158;6.322;2023-05-07T07:19:21;28.88;;;22.30;;
53151;SDS011;39234;53.158;6.322;2023-05-07T07:21:47;28.35;;;23.40;;
53151;SDS011;39234;53.158;6.322;2023-05-07T07:24:13;29.75;;;23.88;;
53151;SDS011;39234;53.158;6.322;2023-05-07T07:26:44;30.88;;;24.88;;
53151;SDS011;39234;53.158;6.322;2023-05-07T07:29:10;27.88;;;23.50;;
53151;SDS011;39234;53.158;6.322;2023-05-07T07:31:36;28.65;;;24.38;;
53151;SDS011;39234;53.158;6.322;2023-05-07T07:34:01;28.13;;;22.88;;
53151;SDS011;39234;53.158;6.322;2023-05-07T07:36:27;27.45;;;22.33;;
53151;SDS011;39234;53.158;6.322;2023-05-07T07:38:53;27.08;;;22.27;;
53151;SDS011;39234;53.158;6.322;2023-05-07T07:41:19;28.35;;;23.45;;
53151;SDS011;39234;53.158;6.322;2023-05-07T07:43:45;28.60;;;23.10;;
53151;SDS011;39234;53.158;6.322;2023-05-07T07:46:11;27.27;;;22.02;;
53151;SDS011;39234;53.158;6.322;2023-05-07T07:48:37;30.75;;;23.60;;
53151;SDS011;39234;53.158;6.322;2023-05-07T07:51:03;26.10;;;22.35;;
53151;SDS011;39234;53.158;6.322;2023-05-07T07:53:29;26.52;;;22.10;;
53151;SDS011;39234;53.158;6.322;2023-05-07T07:55:55;28.80;;;23.73;;
53151;SDS011;39234;53.158;6.322;2023-05-07T07:58:21;30.75;;;24.25;;
53151;SDS011;39234;53.158;6.322;2023-05-07T08:00:47;29.52;;;22.73;;
53151;SDS011;39234;53.158;6.322;2023-05-07T08:03:13;29.88;;;23.52;;
53151;SDS011;39234;53.158;6.322;2023-05-07T08:05:41;30.17;;;24.23;;
53151;SDS011;39234;53.158;6.322;2023-05-07T08:08:07;26.15;;;22.80;;
53151;SDS011;39234;53.158;6.322;2023-05-07T08:10:33;27.80;;;22.85;;
53151;SDS011;39234;53.158;6.322;2023-05-07T08:13:03;29.40;;;22.98;;
53151;SDS011;39234;53.158;6.322;2023-05-07T08:15:29;30.85;;;23.65;;
53151;SDS011;39234;53.158;6.322;2023-05-07T08:17:55;29.13;;;23.60;;
53151;SDS011;39234;53.158;6.322;2023-05-07T08:20:22;31.85;;;24.55;;
53151;SDS011;39234;53.158;6.322;2023-05-07T08:22:48;29.80;;;23.67;;
53151;SDS011;39234;53.158;6.322;2023-05-07T08:25:14;30.35;;;23.52;;
53151;SDS011;39234;53.158;6.322;2023-05-07T08:27:40;29.15;;;24.23;;
53151;SDS011;39234;53.158;6.322;2023-05-07T08:30:06;28.35;;;23.52;;
53151;SDS011;39234;53.158;6.322;2023-05-07T08:32:32;31.13;;;23.08;;
53151;SDS011;39234;53.158;6.322;2023-05-07T08:34:58;27.33;;;23.25;;
53151;SDS011;39234;53.158;6.322;2023-05-07T08:37:24;31.40;;;23.80;;
53151;SDS011;39234;53.158;6.322;2023-05-07T08:39:50;30.50;;;23.98;;
53151;SDS011;39234;53.158;6.322;2023-05-07T08:42:16;26.77;;;22.42;;
53151;SDS011;39234;53.158;6.322;2023-05-07T08:44:42;28.02;;;23.55;;
53151;SDS011;39234;53.158;6.322;2023-05-07T08:47:13;28.75;;;22.80;;
53151;SDS011;39234;53.158;6.322;2023-05-07T08:49:39;28.60;;;23.85;;
53151;SDS011;39234;53.158;6.322;2023-05-07T08:52:05;30.23;;;23.45;;
53151;SDS011;39234;53.158;6.322;2023-05-07T08:54:31;29.98;;;23.02;;
53151;SDS011;39234;53.158;6.322;2023-05-07T08:56:57;25.98;;;23.13;;
53151;SDS011;39234;53.158;6.322;2023-05-07T08:59:23;29.80;;;24.27;;
53151;SDS011;39234;53.158;6.322;2023-05-07T09:01:48;28.70;;;22.98;;
53151;SDS011;39234;53.158;6.322;2023-05-07T09:04:14;28.90;;;22.75;;
53151;SDS011;39234;53.158;6.322;2023-05-07T09:06:40;28.70;;;24.73;;
53151;SDS011;39234;53.158;6.322;2023-05-07T09:09:07;28.13;;;24.23;;
53151;SDS011;39234;53.158;6.322;2023-05-07T09:11:32;28.75;;;23.98;;
53151;SDS011;39234;53.158;6.322;2023-05-07T09:13:58;26.38;;;23.05;;
53151;SDS011;39234;53.158;6.322;2023-05-07T09:16:28;30.30;;;24.13;;
53151;SDS011;39234;53.158;6.322;2023-05-07T09:18:57;27.30;;;21.77;;
53151;SDS011;39234;53.158;6.322;2023-05-07T09:21:24;27.88;;;21.40;;
53151;SDS011;39234;53.158;6.322;2023-05-07T09:23:51;31.10;;;24.63;;
53151;SDS011;39234;53.158;6.322;2023-05-07T09:26:20;28.45;;;22.50;;
53151;SDS011;39234;53.158;6.322;2023-05-07T09:28:47;27.50;;;22.85;;
53151;SDS011;39234;53.158;6.322;2023-05-07T09:31:13;23.48;;;20.92;;
53151;SDS011;39234;53.158;6.322;2023-05-07T09:33:39;26.70;;;22.20;;
53151;SDS011;39234;53.158;6.322;2023-05-07T09:36:05;25.90;;;20.48;;
53151;SDS011;39234;53.158;6.322;2023-05-07T09:38:32;27.05;;;22.20;;
53151;SDS011;39234;53.158;6.322;2023-05-07T09:41:06;25.30;;;21.50;;
53151;SDS011;39234;53.158;6.322;2023-05-07T09:43:32;24.90;;;22.02;;
53151;SDS011;39234;53.158;6.322;2023-05-07T09:46:03;24.75;;;21.83;;
53151;SDS011;39234;53.158;6.322;2023-05-07T09:48:39;24.58;;;20.17;;
53151;SDS011;39234;53.158;6.322;2023-05-07T09:53:52;24.30;;;21.60;;
53151;SDS011;39234;53.158;6.322;2023-05-07T09:56:18;22.98;;;20.45;;
53151;SDS011;39234;53.158;6.322;2023-05-07T09:58:45;23.20;;;20.70;;
53151;SDS011;39234;53.158;6.322;2023-05-07T10:01:11;26.27;;;19.88;;
53151;SDS011;39234;53.158;6.322;2023-05-07T10:03:39;23.65;;;19.55;;
53151;SDS011;39234;53.158;6.322;2023-05-07T10:06:08;22.23;;;19.27;;
53151;SDS011;39234;53.158;6.322;2023-05-07T10:08:35;22.23;;;19.35;;
53151;SDS011;39234;53.158;6.322;2023-05-07T10:11:03;22.30;;;19.13;;
53151;SDS011;39234;53.158;6.322;2023-05-07T10:13:30;22.88;;;18.55;;
53151;SDS011;39234;53.158;6.322;2023-05-07T10:15:57;23.40;;;19.33;;
53151;SDS011;39234;53.158;6.322;2023-05-07T10:18:24;23.27;;;19.35;;
53151;SDS011;39234;53.158;6.322;2023-05-07T10:20:54;22.95;;;19.13;;
53151;SDS011;39234;53.158;6.322;2023-05-07T10:23:24;21.63;;;19.25;;
53151;SDS011;39234;53.158;6.322;2023-05-07T10:25:51;23.63;;;19.77;;
53151;SDS011;39234;53.158;6.322;2023-05-07T10:28:19;22.10;;;19.38;;
53151;SDS011;39234;53.158;6.322;2023-05-07T10:33:26;21.23;;;18.90;;
53151;SDS011;39234;53.158;6.322;2023-05-07T10:35:55;20.60;;;18.15;;
53151;SDS011;39234;53.158;6.322;2023-05-07T10:38:25;22.15;;;18.20;;
53151;SDS011;39234;53.158;6.322;2023-05-07T10:40:52;20.08;;;17.90;;
53151;SDS011;39234;53.158;6.322;2023-05-07T10:43:18;20.90;;;17.95;;
53151;SDS011;39234;53.158;6.322;2023-05-07T10:45:45;21.77;;;18.42;;
53151;SDS011;39234;53.158;6.322;2023-05-07T10:51:31;20.30;;;18.10;;
53151;SDS011;39234;53.158;6.322;2023-05-07T10:56:43;21.25;;;18.80;;
53151;SDS011;39234;53.158;6.322;2023-05-07T11:01:49;19.90;;;17.48;;
53151;SDS011;39234;53.158;6.322;2023-05-07T11:04:19;21.00;;;18.02;;
53151;SDS011;39234;53.158;6.322;2023-05-07T11:15:05;20.13;;;17.88;;
53151;SDS011;39234;53.158;6.322;2023-05-07T11:17:33;20.88;;;17.90;;
53151;SDS011;39234;53.158;6.322;2023-05-07T11:20:00;19.45;;;16.45;;
53151;SDS011;39234;53.158;6.322;2023-05-07T11:24:55;18.58;;;16.52;;
53151;SDS011;39234;53.158;6.322;2023-05-07T11:27:23;19.67;;;17.58;;
53151;SDS011;39234;53.158;6.322;2023-05-07T11:29:49;21.23;;;16.40;;
53151;SDS011;39234;53.158;6.322;2023-05-07T11:32:15;19.58;;;16.77;;
53151;SDS011;39234;53.158;6.322;2023-05-07T11:34:51;19.73;;;16.77;;
53151;SDS011;39234;53.158;6.322;2023-05-07T11:37:18;17.90;;;15.50;;
53151;SDS011;39234;53.158;6.322;2023-05-07T11:39:47;17.48;;;15.15;;
53151;SDS011;39234;53.158;6.322;2023-05-07T11:42:28;18.33;;;16.08;;
53151;SDS011;39234;53.158;6.322;2023-05-07T11:44:54;17.63;;;15.73;;
53151;SDS011;39234;53.158;6.322;2023-05-07T11:47:20;17.40;;;15.25;;
53151;SDS011;39234;53.158;6.322;2023-05-07T11:49:47;16.77;;;14.82;;
53151;SDS011;39234;53.158;6.322;2023-05-07T11:52:14;20.70;;;16.23;;
53151;SDS011;39234;53.158;6.322;2023-05-07T11:54:41;17.35;;;15.55;;
53151;SDS011;39234;53.158;6.322;2023-05-07T11:57:16;16.48;;;14.07;;
53151;SDS011;39234;53.158;6.322;2023-05-07T11:59:42;19.20;;;15.07;;
53151;SDS011;39234;53.158;6.322;2023-05-07T12:02:15;17.27;;;14.77;;
53151;SDS011;39234;53.158;6.322;2023-05-07T12:04:42;16.88;;;15.07;;
53151;SDS011;39234;53.158;6.322;2023-05-07T12:07:14;17.33;;;15.50;;
53151;SDS011;39234;53.158;6.322;2023-05-07T12:09:46;17.70;;;15.35;;
53151;SDS011;39234;53.158;6.322;2023-05-07T12:12:13;18.13;;;16.33;;
53151;SDS011;39234;53.158;6.322;2023-05-07T12:14:42;16.23;;;14.52;;
53151;SDS011;39234;53.158;6.322;2023-05-07T12:17:10;17.25;;;15.55;;
53151;SDS011;39234;53.158;6.322;2023-05-07T12:19:37;16.75;;;14.95;;
53151;SDS011;39234;53.158;6.322;2023-05-07T12:22:04;17.65;;;15.80;;
53151;SDS011;39234;53.158;6.322;2023-05-07T12:24:49;17.25;;;14.43;;
53151;SDS011;39234;53.158;6.322;2023-05-07T12:27:21;19.67;;;15.38;;
53151;SDS011;39234;53.158;6.322;2023-05-07T12:29:48;18.05;;;15.63;;
53151;SDS011;39234;53.158;6.322;2023-05-07T12:32:16;16.80;;;15.20;;
53151;SDS011;39234;53.158;6.322;2023-05-07T12:34:43;16.85;;;15.15;;
53151;SDS011;39234;53.158;6.322;2023-05-07T12:37:10;17.65;;;15.93;;
53151;SDS011;39234;53.158;6.322;2023-05-07T12:39:36;18.08;;;15.90;;
53151;SDS011;39234;53.158;6.322;2023-05-07T12:42:01;16.52;;;14.93;;
53151;SDS011;39234;53.158;6.322;2023-05-07T12:44:31;18.67;;;16.02;;
53151;SDS011;39234;53.158;6.322;2023-05-07T12:46:58;16.90;;;15.20;;
53151;SDS011;39234;53.158;6.322;2023-05-07T12:49:26;17.73;;;15.75;;
53151;SDS011;39234;53.158;6.322;2023-05-07T12:51:53;16.98;;;14.68;;
53151;SDS011;39234;53.158;6.322;2023-05-07T12:54:31;20.25;;;15.27;;
53151;SDS011;39234;53.158;6.322;2023-05-07T12:59:34;16.08;;;14.45;;
53151;SDS011;39234;53.158;6.322;2023-05-07T13:02:07;17.60;;;14.48;;
53151;SDS011;39234;53.158;6.322;2023-05-07T13:04:34;16.55;;;14.85;;
53151;SDS011;39234;53.158;6.322;2023-05-07T13:07:00;16.45;;;14.75;;
53151;SDS011;39234;53.158;6.322;2023-05-07T13:09:26;15.10;;;13.60;;
53151;SDS011;39234;53.158;6.322;2023-05-07T13:11:53;19.67;;;14.50;;
53151;SDS011;39234;53.158;6.322;2023-05-07T13:14:19;15.55;;;13.95;;
53151;SDS011;39234;53.158;6.322;2023-05-07T13:16:46;16.63;;;14.93;;
53151;SDS011;39234;53.158;6.322;2023-05-07T13:19:12;16.17;;;14.52;;
53151;SDS011;39234;53.158;6.322;2023-05-07T13:21:38;16.05;;;14.10;;
53151;SDS011;39234;53.158;6.322;2023-05-07T13:24:04;15.45;;;13.38;;
53151;SDS011;39234;53.158;6.322;2023-05-07T13:26:30;16.13;;;14.43;;
53151;SDS011;39234;53.158;6.322;2023-05-07T13:28:56;15.20;;;13.70;;
53151;SDS011;39234;53.158;6.322;2023-05-07T13:31:22;14.57;;;13.15;;
53151;SDS011;39234;53.158;6.322;2023-05-07T13:33:48;15.85;;;14.15;;
53151;SDS011;39234;53.158;6.322;2023-05-07T13:36:14;15.27;;;13.35;;
53151;SDS011;39234;53.158;6.322;2023-05-07T13:38:40;15.18;;;13.52;;
53151;SDS011;39234;53.158;6.322;2023-05-07T13:41:06;15.93;;;13.20;;
53151;SDS011;39234;53.158;6.322;2023-05-07T13:43:31;15.32;;;13.75;;
53151;SDS011;39234;53.158;6.322;2023-05-07T13:45:59;14.20;;;12.70;;
53151;SDS011;39234;53.158;6.322;2023-05-07T13:48:25;15.18;;;13.52;;
53151;SDS011;39234;53.158;6.322;2023-05-07T13:50:51;15.05;;;13.40;;
53151;SDS011;39234;53.158;6.322;2023-05-07T13:53:17;15.18;;;13.43;;
53151;SDS011;39234;53.158;6.322;2023-05-07T13:55:43;15.25;;;13.75;;
53151;SDS011;39234;53.158;6.322;2023-05-07T13:58:10;15.40;;;13.90;;
53151;SDS011;39234;53.158;6.322;2023-05-07T14:00:36;14.95;;;13.45;;
53151;SDS011;39234;53.158;6.322;2023-05-07T14:03:01;15.38;;;13.80;;
53151;SDS011;39234;53.158;6.322;2023-05-07T14:05:29;17.13;;;13.88;;
53151;SDS011;39234;53.158;6.322;2023-05-07T14:07:55;15.50;;;13.93;;
53151;SDS011;39234;53.158;6.322;2023-05-07T14:10:22;15.27;;;13.77;;
53151;SDS011;39234;53.158;6.322;2023-05-07T14:12:48;17.67;;;15.65;;
53151;SDS011;39234;53.158;6.322;2023-05-07T14:15:14;15.77;;;14.27;;
53151;SDS011;39234;53.158;6.322;2023-05-07T14:17:41;17.17;;;13.63;;
53151;SDS011;39234;53.158;6.322;2023-05-07T14:20:08;16.90;;;14.77;;
53151;SDS011;39234;53.158;6.322;2023-05-07T14:22:35;16.38;;;14.77;;
53151;SDS011;39234;53.158;6.322;2023-05-07T14:25:01;15.20;;;13.70;;
53151;SDS011;39234;53.158;6.322;2023-05-07T14:27:27;16.95;;;15.15;;
53151;SDS011;39234;53.158;6.322;2023-05-07T14:29:53;15.57;;;13.98;;
53151;SDS011;39234;53.158;6.322;2023-05-07T14:32:18;16.02;;;13.93;;
53151;SDS011;39234;53.158;6.322;2023-05-07T14:34:44;14.43;;;12.93;;
53151;SDS011;39234;53.158;6.322;2023-05-07T14:37:11;15.23;;;13.73;;
53151;SDS011;39234;53.158;6.322;2023-05-07T14:39:36;15.52;;;13.93;;
53151;SDS011;39234;53.158;6.322;2023-05-07T14:42:02;16.23;;;14.63;;
53151;SDS011;39234;53.158;6.322;2023-05-07T14:44:28;15.05;;;13.10;;